sensor_id;sensor_type;location;lat;lon;timestamp;P1;durP1;ratioP1;P2;durP2;ratioP2
21258;SDS011;10787;53.364;-1.480;2024-01-30T00:00:03;36.90;;;22.23;;
21258;SDS011;10787;53.364;-1.480;2024-01-30T00:02:48;37.37;;;22.70;;
21258;SDS011;10787;53.364;-1.480;2024-01-30T00:05:32;43.37;;;22.07;;
21258;SDS011;10787;53.364;-1.480;2024-01-30T00:08:17;41.27;;;21.87;;
21258;SDS011;10787;53.364;-1.480;2024-01-30T00:11:01;40.20;;;22.10;;
21258;SDS011;10787;53.364;-1.480;2024-01-30T00:13:46;35.87;;;20.33;;
21258;SDS011;10787;53.364;-1.480;2024-01-30T00:16:30;40.53;;;21.00;;
21258;SDS011;10787;53.364;-1.480;2024-01-30T00:19:14;36.97;;;20.60;;
21258;SDS011;10787;53.364;-1.480;2024-01-30T00:21:58;35.13;;;20.93;;
21258;SDS011;10787;53.364;-1.480;2024-01-30T00:24:42;39.97;;;21.07;;
21258;SDS011;10787;53.364;-1.480;2024-01-30T00:27:26;40.73;;;19.90;;
21258;SDS011;10787;53.364;-1.480;2024-01-30T00:30:11;39.87;;;20.37;;
21258;SDS011;10787;53.364;-1.480;2024-01-30T00:32:56;35.67;;;19.30;;
21258;SDS011;10787;53.364;-1.480;2024-01-30T00:35:40;39.07;;;20.80;;
21258;SDS011;10787;53.364;-1.480;2024-01-30T00:38:24;40.00;;;19.83;;
21258;SDS011;10787;53.364;-1.480;2024-01-30T00:41:08;36.97;;;19.33;;
21258;SDS011;10787;53.364;-1.480;2024-01-30T00:43:53;42.60;;;19.63;;
21258;SDS011;10787;53.364;-1.480;2024-01-30T00:46:37;39.20;;;19.90;;
21258;SDS011;10787;53.364;-1.480;2024-01-30T00:49:21;38.13;;;20.10;;
21258;SDS011;10787;53.364;-1.480;2024-01-30T00:52:05;37.63;;;19.77;;
21258;SDS011;10787;53.364;-1.480;2024-01-30T00:54:50;38.83;;;19.77;;
21258;SDS011;10787;53.364;-1.480;2024-01-30T00:57:34;37.30;;;19.67;;
21258;SDS011;10787;53.364;-1.480;2024-01-30T01:00:18;42.70;;;18.87;;
21258;SDS011;10787;53.364;-1.480;2024-01-30T01:03:04;37.70;;;19.03;;
21258;SDS011;10787;53.364;-1.480;2024-01-30T01:05:49;37.70;;;18.43;;
21258;SDS011;10787;53.364;-1.480;2024-01-30T01:08:33;32.93;;;17.70;;
21258;SDS011;10787;53.364;-1.480;2024-01-30T01:11:17;43.87;;;19.27;;
21258;SDS011;10787;53.364;-1.480;2024-01-30T01:14:01;40.10;;;18.27;;
21258;SDS011;10787;53.364;-1.480;2024-01-30T01:16:46;37.47;;;17.90;;
21258;SDS011;10787;53.364;-1.480;2024-01-30T01:19:30;39.40;;;17.20;;
21258;SDS011;10787;53.364;-1.480;2024-01-30T01:22:15;32.20;;;17.30;;
21258;SDS011;10787;53.364;-1.480;2024-01-30T01:25:01;36.30;;;17.70;;
21258;SDS011;10787;53.364;-1.480;2024-01-30T01:27:45;32.10;;;17.47;;
21258;SDS011;10787;53.364;-1.480;2024-01-30T01:30:34;34.50;;;17.37;;
21258;SDS011;10787;53.364;-1.480;2024-01-30T01:33:19;31.80;;;17.60;;
21258;SDS011;10787;53.364;-1.480;2024-01-30T01:36:03;39.17;;;17.60;;
21258;SDS011;10787;53.364;-1.480;2024-01-30T01:38:48;39.93;;;16.60;;
21258;SDS011;10787;53.364;-1.480;2024-01-30T01:41:33;33.87;;;17.40;;
21258;SDS011;10787;53.364;-1.480;2024-01-30T01:44:18;32.10;;;16.53;;
21258;SDS011;10787;53.364;-1.480;2024-01-30T01:47:03;33.17;;;16.97;;
21258;SDS011;10787;53.364;-1.480;2024-01-30T01:49:47;30.40;;;17.43;;
21258;SDS011;10787;53.364;-1.480;2024-01-30T01:52:32;29.57;;;16.87;;
21258;SDS011;10787;53.364;-1.480;2024-01-30T01:55:16;32.20;;;17.23;;
21258;SDS011;10787;53.364;-1.480;2024-01-30T01:58:02;35.53;;;17.47;;
21258;SDS011;10787;53.364;-1.480;2024-01-30T02:00:46;35.27;;;16.90;;
21258;SDS011;10787;53.364;-1.480;2024-01-30T02:03:30;31.50;;;16.80;;
21258;SDS011;10787;53.364;-1.480;2024-01-30T02:06:15;33.10;;;16.57;;
21258;SDS011;10787;53.364;-1.480;2024-01-30T02:08:59;33.60;;;16.40;;
21258;SDS011;10787;53.364;-1.480;2024-01-30T02:11:44;27.47;;;16.17;;
21258;SDS011;10787;53.364;-1.480;2024-01-30T02:14:29;27.83;;;15.40;;
21258;SDS011;10787;53.364;-1.480;2024-01-30T02:17:13;30.13;;;15.20;;
21258;SDS011;10787;53.364;-1.480;2024-01-30T02:19:57;29.67;;;15.20;;
21258;SDS011;10787;53.364;-1.480;2024-01-30T02:22:42;27.50;;;14.97;;
21258;SDS011;10787;53.364;-1.480;2024-01-30T02:25:31;27.30;;;13.13;;
21258;SDS011;10787;53.364;-1.480;2024-01-30T02:28:21;12.43;;;6.43;;
21258;SDS011;10787;53.364;-1.480;2024-01-30T02:31:06;8.03;;;4.57;;
21258;SDS011;10787;53.364;-1.480;2024-01-30T02:33:50;4.10;;;3.30;;
21258;SDS011;10787;53.364;-1.480;2024-01-30T02:36:34;3.63;;;2.70;;
21258;SDS011;10787;53.364;-1.480;2024-01-30T02:39:19;2.57;;;2.27;;
21258;SDS011;10787;53.364;-1.480;2024-01-30T02:42:03;2.67;;;2.30;;
21258;SDS011;10787;53.364;-1.480;2024-01-30T02:44:48;2.40;;;2.00;;
21258;SDS011;10787;53.364;-1.480;2024-01-30T02:47:32;2.37;;;2.00;;
21258;SDS011;10787;53.364;-1.480;2024-01-30T02:50:16;2.40;;;2.10;;
21258;SDS011;10787;53.364;-1.480;2024-01-30T02:53:00;2.97;;;2.10;;
21258;SDS011;10787;53.364;-1.480;2024-01-30T02:55:45;3.33;;;2.40;;
21258;SDS011;10787;53.364;-1.480;2024-01-30T02:58:29;2.43;;;2.03;;
21258;SDS011;10787;53.364;-1.480;2024-01-30T03:01:14;2.53;;;2.30;;
21258;SDS011;10787;53.364;-1.480;2024-01-30T03:03:58;2.60;;;2.40;;
21258;SDS011;10787;53.364;-1.480;2024-01-30T03:06:45;2.93;;;2.30;;
21258;SDS011;10787;53.364;-1.480;2024-01-30T03:09:33;2.40;;;2.20;;
21258;SDS011;10787;53.364;-1.480;2024-01-30T03:12:17;3.57;;;2.23;;
21258;SDS011;10787;53.364;-1.480;2024-01-30T03:15:01;2.40;;;2.17;;
21258;SDS011;10787;53.364;-1.480;2024-01-30T03:17:46;2.90;;;2.00;;
21258;SDS011;10787;53.364;-1.480;2024-01-30T03:20:30;2.33;;;2.00;;
21258;SDS011;10787;53.364;-1.480;2024-01-30T03:23:15;2.10;;;1.90;;
21258;SDS011;10787;53.364;-1.480;2024-01-30T03:25:59;1.80;;;1.50;;
21258;SDS011;10787;53.364;-1.480;2024-01-30T03:28:43;1.60;;;1.50;;
21258;SDS011;10787;53.364;-1.480;2024-01-30T03:31:28;1.50;;;1.30;;
21258;SDS011;10787;53.364;-1.480;2024-01-30T03:34:12;1.30;;;1.20;;
21258;SDS011;10787;53.364;-1.480;2024-01-30T03:36:56;1.40;;;1.30;;
21258;SDS011;10787;53.364;-1.480;2024-01-30T03:39:40;1.67;;;0.90;;
21258;SDS011;10787;53.364;-1.480;2024-01-30T03:42:24;0.90;;;0.80;;
21258;SDS011;10787;53.364;-1.480;2024-01-30T03:45:08;1.10;;;1.00;;
21258;SDS011;10787;53.364;-1.480;2024-01-30T03:47:52;0.93;;;0.80;;
21258;SDS011;10787;53.364;-1.480;2024-01-30T03:50:36;0.83;;;0.80;;
21258;SDS011;10787;53.364;-1.480;2024-01-30T03:53:21;0.80;;;0.70;;
21258;SDS011;10787;53.364;-1.480;2024-01-30T03:56:06;0.70;;;0.60;;
21258;SDS011;10787;53.364;-1.480;2024-01-30T03:58:51;0.80;;;0.50;;
21258;SDS011;10787;53.364;-1.480;2024-01-30T04:01:35;0.50;;;0.50;;
21258;SDS011;10787;53.364;-1.480;2024-01-30T04:04:20;0.60;;;0.57;;
21258;SDS011;10787;53.364;-1.480;2024-01-30T04:07:05;0.60;;;0.50;;
21258;SDS011;10787;53.364;-1.480;2024-01-30T04:09:49;0.60;;;0.60;;
21258;SDS011;10787;53.364;-1.480;2024-01-30T04:12:33;0.40;;;0.40;;
21258;SDS011;10787;53.364;-1.480;2024-01-30T04:15:17;0.70;;;0.60;;
21258;SDS011;10787;53.364;-1.480;2024-01-30T04:18:02;0.50;;;0.50;;
21258;SDS011;10787;53.364;-1.480;2024-01-30T04:20:46;0.83;;;0.60;;
21258;SDS011;10787;53.364;-1.480;2024-01-30T04:23:31;0.80;;;0.70;;
21258;SDS011;10787;53.364;-1.480;2024-01-30T04:26:15;0.70;;;0.60;;
21258;SDS011;10787;53.364;-1.480;2024-01-30T04:28:59;0.63;;;0.63;;
21258;SDS011;10787;53.364;-1.480;2024-01-30T04:31:43;0.60;;;0.60;;
21258;SDS011;10787;53.364;-1.480;2024-01-30T04:34:27;0.80;;;0.60;;
21258;SDS011;10787;53.364;-1.480;2024-01-30T04:37:11;0.70;;;0.70;;
21258;SDS011;10787;53.364;-1.480;2024-01-30T04:39:56;1.17;;;0.90;;
21258;SDS011;10787;53.364;-1.480;2024-01-30T04:42:41;1.13;;;0.70;;
21258;SDS011;10787;53.364;-1.480;2024-01-30T04:45:25;0.80;;;0.70;;
21258;SDS011;10787;53.364;-1.480;2024-01-30T04:48:09;0.97;;;0.80;;
21258;SDS011;10787;53.364;-1.480;2024-01-30T04:50:53;1.10;;;0.90;;
21258;SDS011;10787;53.364;-1.480;2024-01-30T04:53:39;1.00;;;0.80;;
21258;SDS011;10787;53.364;-1.480;2024-01-30T04:56:23;1.70;;;0.90;;
21258;SDS011;10787;53.364;-1.480;2024-01-30T04:59:08;1.53;;;0.87;;
21258;SDS011;10787;53.364;-1.480;2024-01-30T05:01:53;2.30;;;0.93;;
21258;SDS011;10787;53.364;-1.480;2024-01-30T05:04:37;1.60;;;1.00;;
21258;SDS011;10787;53.364;-1.480;2024-01-30T05:07:22;1.10;;;0.80;;
21258;SDS011;10787;53.364;-1.480;2024-01-30T05:10:06;0.70;;;0.70;;
21258;SDS011;10787;53.364;-1.480;2024-01-30T05:12:50;1.10;;;0.80;;
21258;SDS011;10787;53.364;-1.480;2024-01-30T05:15:34;1.80;;;0.90;;
21258;SDS011;10787;53.364;-1.480;2024-01-30T05:18:18;1.60;;;1.03;;
21258;SDS011;10787;53.364;-1.480;2024-01-30T05:21:02;1.30;;;1.00;;
21258;SDS011;10787;53.364;-1.480;2024-01-30T05:23:47;1.23;;;0.90;;
21258;SDS011;10787;53.364;-1.480;2024-01-30T05:26:31;1.30;;;1.03;;
21258;SDS011;10787;53.364;-1.480;2024-01-30T05:29:15;1.17;;;1.00;;
21258;SDS011;10787;53.364;-1.480;2024-01-30T05:31:59;1.30;;;1.10;;
21258;SDS011;10787;53.364;-1.480;2024-01-30T05:34:44;1.53;;;1.20;;
21258;SDS011;10787;53.364;-1.480;2024-01-30T05:37:28;1.73;;;1.10;;
21258;SDS011;10787;53.364;-1.480;2024-01-30T05:40:12;1.60;;;1.20;;
21258;SDS011;10787;53.364;-1.480;2024-01-30T05:42:56;1.63;;;1.20;;
21258;SDS011;10787;53.364;-1.480;2024-01-30T05:45:44;2.20;;;1.30;;
21258;SDS011;10787;53.364;-1.480;2024-01-30T05:48:29;1.47;;;1.17;;
21258;SDS011;10787;53.364;-1.480;2024-01-30T05:51:13;1.40;;;1.20;;
21258;SDS011;10787;53.364;-1.480;2024-01-30T05:53:57;1.80;;;0.97;;
21258;SDS011;10787;53.364;-1.480;2024-01-30T05:56:42;2.30;;;1.00;;
21258;SDS011;10787;53.364;-1.480;2024-01-30T05:59:26;1.17;;;1.00;;
21258;SDS011;10787;53.364;-1.480;2024-01-30T06:02:10;1.43;;;1.00;;
21258;SDS011;10787;53.364;-1.480;2024-01-30T06:04:54;1.40;;;0.80;;
21258;SDS011;10787;53.364;-1.480;2024-01-30T06:07:38;1.70;;;1.20;;
21258;SDS011;10787;53.364;-1.480;2024-01-30T06:10:22;1.33;;;1.00;;
21258;SDS011;10787;53.364;-1.480;2024-01-30T06:13:07;1.20;;;1.00;;
21258;SDS011;10787;53.364;-1.480;2024-01-30T06:15:51;1.30;;;0.90;;
21258;SDS011;10787;53.364;-1.480;2024-01-30T06:18:36;0.73;;;0.70;;
21258;SDS011;10787;53.364;-1.480;2024-01-30T06:21:19;0.57;;;0.50;;
21258;SDS011;10787;53.364;-1.480;2024-01-30T06:24:04;0.40;;;0.40;;
21258;SDS011;10787;53.364;-1.480;2024-01-30T06:26:48;1.07;;;0.70;;
21258;SDS011;10787;53.364;-1.480;2024-01-30T06:29:32;1.03;;;0.60;;
21258;SDS011;10787;53.364;-1.480;2024-01-30T06:32:16;0.80;;;0.67;;
21258;SDS011;10787;53.364;-1.480;2024-01-30T06:35:01;4.03;;;0.73;;
21258;SDS011;10787;53.364;-1.480;2024-01-30T06:37:45;1.17;;;0.60;;
21258;SDS011;10787;53.364;-1.480;2024-01-30T06:40:30;0.60;;;0.60;;
21258;SDS011;10787;53.364;-1.480;2024-01-30T06:43:14;0.97;;;0.80;;
21258;SDS011;10787;53.364;-1.480;2024-01-30T06:45:59;1.33;;;0.80;;
21258;SDS011;10787;53.364;-1.480;2024-01-30T06:48:43;7.37;;;0.97;;
21258;SDS011;10787;53.364;-1.480;2024-01-30T06:51:28;1.87;;;0.67;;
21258;SDS011;10787;53.364;-1.480;2024-01-30T06:54:12;1.67;;;0.60;;
21258;SDS011;10787;53.364;-1.480;2024-01-30T06:56:57;0.40;;;0.40;;
21258;SDS011;10787;53.364;-1.480;2024-01-30T06:59:41;0.70;;;0.47;;
21258;SDS011;10787;53.364;-1.480;2024-01-30T07:02:27;0.70;;;0.50;;
21258;SDS011;10787;53.364;-1.480;2024-01-30T07:05:12;0.53;;;0.50;;
21258;SDS011;10787;53.364;-1.480;2024-01-30T07:07:57;0.87;;;0.60;;
21258;SDS011;10787;53.364;-1.480;2024-01-30T07:10:41;0.40;;;0.40;;
21258;SDS011;10787;53.364;-1.480;2024-01-30T07:13:27;0.50;;;0.47;;
21258;SDS011;10787;53.364;-1.480;2024-01-30T07:16:12;1.13;;;0.70;;
21258;SDS011;10787;53.364;-1.480;2024-01-30T07:18:57;0.73;;;0.60;;
21258;SDS011;10787;53.364;-1.480;2024-01-30T07:21:41;0.50;;;0.50;;
21258;SDS011;10787;53.364;-1.480;2024-01-30T07:24:25;1.10;;;0.60;;
21258;SDS011;10787;53.364;-1.480;2024-01-30T07:27:10;2.10;;;0.70;;
21258;SDS011;10787;53.364;-1.480;2024-01-30T07:29:54;1.30;;;0.63;;
21258;SDS011;10787;53.364;-1.480;2024-01-30T07:32:38;1.00;;;0.80;;
21258;SDS011;10787;53.364;-1.480;2024-01-30T07:35:23;9.90;;;1.67;;
21258;SDS011;10787;53.364;-1.480;2024-01-30T07:38:07;1.57;;;0.93;;
21258;SDS011;10787;53.364;-1.480;2024-01-30T07:40:51;2.83;;;0.90;;
21258;SDS011;10787;53.364;-1.480;2024-01-30T07:43:35;0.80;;;0.80;;
21258;SDS011;10787;53.364;-1.480;2024-01-30T07:46:21;0.90;;;0.70;;
21258;SDS011;10787;53.364;-1.480;2024-01-30T07:49:05;1.13;;;0.80;;
21258;SDS011;10787;53.364;-1.480;2024-01-30T07:51:50;1.10;;;0.80;;
21258;SDS011;10787;53.364;-1.480;2024-01-30T07:54:34;1.77;;;0.90;;
21258;SDS011;10787;53.364;-1.480;2024-01-30T07:57:22;1.33;;;0.80;;
21258;SDS011;10787;53.364;-1.480;2024-01-30T08:00:07;1.00;;;0.80;;
21258;SDS011;10787;53.364;-1.480;2024-01-30T08:02:51;1.50;;;1.10;;
21258;SDS011;10787;53.364;-1.480;2024-01-30T08:05:38;1.20;;;1.00;;
21258;SDS011;10787;53.364;-1.480;2024-01-30T08:08:22;1.87;;;1.53;;
21258;SDS011;10787;53.364;-1.480;2024-01-30T08:11:06;1.53;;;1.00;;
21258;SDS011;10787;53.364;-1.480;2024-01-30T08:13:52;1.10;;;0.90;;
21258;SDS011;10787;53.364;-1.480;2024-01-30T08:16:36;7.13;;;1.20;;
21258;SDS011;10787;53.364;-1.480;2024-01-30T08:19:20;1.13;;;0.90;;
21258;SDS011;10787;53.364;-1.480;2024-01-30T08:22:04;1.77;;;0.80;;
21258;SDS011;10787;53.364;-1.480;2024-01-30T08:24:48;1.13;;;0.70;;
21258;SDS011;10787;53.364;-1.480;2024-01-30T08:27:33;1.27;;;0.80;;
21258;SDS011;10787;53.364;-1.480;2024-01-30T08:30:19;1.97;;;0.80;;
21258;SDS011;10787;53.364;-1.480;2024-01-30T08:33:03;1.30;;;0.80;;
21258;SDS011;10787;53.364;-1.480;2024-01-30T08:35:47;0.83;;;0.70;;
21258;SDS011;10787;53.364;-1.480;2024-01-30T08:38:32;2.10;;;1.13;;
21258;SDS011;10787;53.364;-1.480;2024-01-30T08:41:16;1.00;;;0.90;;
21258;SDS011;10787;53.364;-1.480;2024-01-30T08:44:00;1.00;;;0.90;;
21258;SDS011;10787;53.364;-1.480;2024-01-30T08:46:44;2.17;;;1.20;;
21258;SDS011;10787;53.364;-1.480;2024-01-30T08:49:33;2.33;;;1.30;;
21258;SDS011;10787;53.364;-1.480;2024-01-30T08:52:17;3.70;;;1.00;;
21258;SDS011;10787;53.364;-1.480;2024-01-30T08:55:01;1.07;;;0.87;;
21258;SDS011;10787;53.364;-1.480;2024-01-30T08:57:45;1.50;;;0.90;;
21258;SDS011;10787;53.364;-1.480;2024-01-30T09:00:29;3.80;;;1.20;;
21258;SDS011;10787;53.364;-1.480;2024-01-30T09:03:13;1.00;;;0.87;;
21258;SDS011;10787;53.364;-1.480;2024-01-30T09:05:58;0.60;;;0.60;;
21258;SDS011;10787;53.364;-1.480;2024-01-30T09:08:42;1.30;;;0.60;;
21258;SDS011;10787;53.364;-1.480;2024-01-30T09:11:27;0.70;;;0.70;;
21258;SDS011;10787;53.364;-1.480;2024-01-30T09:14:11;0.90;;;0.57;;
21258;SDS011;10787;53.364;-1.480;2024-01-30T09:16:55;1.03;;;0.60;;
21258;SDS011;10787;53.364;-1.480;2024-01-30T09:19:40;1.10;;;0.53;;
21258;SDS011;10787;53.364;-1.480;2024-01-30T09:22:25;1.40;;;0.60;;
21258;SDS011;10787;53.364;-1.480;2024-01-30T09:25:10;1.10;;;0.53;;
21258;SDS011;10787;53.364;-1.480;2024-01-30T09:27:54;1.37;;;0.60;;
21258;SDS011;10787;53.364;-1.480;2024-01-30T09:30:38;0.50;;;0.50;;
21258;SDS011;10787;53.364;-1.480;2024-01-30T09:33:22;3.43;;;0.60;;
21258;SDS011;10787;53.364;-1.480;2024-01-30T09:36:07;0.50;;;0.50;;
21258;SDS011;10787;53.364;-1.480;2024-01-30T09:38:51;0.60;;;0.50;;
21258;SDS011;10787;53.364;-1.480;2024-01-30T09:41:40;0.80;;;0.60;;
21258;SDS011;10787;53.364;-1.480;2024-01-30T09:44:30;2.83;;;0.50;;
21258;SDS011;10787;53.364;-1.480;2024-01-30T09:47:15;3.17;;;1.00;;
21258;SDS011;10787;53.364;-1.480;2024-01-30T09:50:00;0.97;;;0.60;;
21258;SDS011;10787;53.364;-1.480;2024-01-30T09:52:46;0.80;;;0.60;;
21258;SDS011;10787;53.364;-1.480;2024-01-30T09:55:31;0.80;;;0.60;;
21258;SDS011;10787;53.364;-1.480;2024-01-30T09:58:16;0.63;;;0.60;;
21258;SDS011;10787;53.364;-1.480;2024-01-30T10:01:00;0.80;;;0.70;;
21258;SDS011;10787;53.364;-1.480;2024-01-30T10:03:44;1.07;;;0.70;;
21258;SDS011;10787;53.364;-1.480;2024-01-30T10:06:29;0.70;;;0.50;;
21258;SDS011;10787;53.364;-1.480;2024-01-30T10:09:14;0.70;;;0.60;;
21258;SDS011;10787;53.364;-1.480;2024-01-30T10:11:58;0.60;;;0.50;;
21258;SDS011;10787;53.364;-1.480;2024-01-30T10:14:42;2.90;;;0.70;;
21258;SDS011;10787;53.364;-1.480;2024-01-30T10:17:27;1.90;;;0.73;;
21258;SDS011;10787;53.364;-1.480;2024-01-30T10:20:13;0.93;;;0.60;;
21258;SDS011;10787;53.364;-1.480;2024-01-30T10:22:57;1.03;;;0.50;;
21258;SDS011;10787;53.364;-1.480;2024-01-30T10:25:42;0.50;;;0.40;;
21258;SDS011;10787;53.364;-1.480;2024-01-30T10:28:27;0.90;;;0.60;;
21258;SDS011;10787;53.364;-1.480;2024-01-30T10:31:16;0.83;;;0.50;;
21258;SDS011;10787;53.364;-1.480;2024-01-30T10:34:01;1.40;;;0.60;;
21258;SDS011;10787;53.364;-1.480;2024-01-30T10:36:46;1.47;;;0.70;;
21258;SDS011;10787;53.364;-1.480;2024-01-30T10:39:36;0.80;;;0.60;;
21258;SDS011;10787;53.364;-1.480;2024-01-30T10:42:24;2.53;;;0.70;;
21258;SDS011;10787;53.364;-1.480;2024-01-30T10:45:13;3.23;;;0.53;;
21258;SDS011;10787;53.364;-1.480;2024-01-30T10:47:59;2.10;;;0.70;;
21258;SDS011;10787;53.364;-1.480;2024-01-30T10:50:45;1.90;;;0.70;;
21258;SDS011;10787;53.364;-1.480;2024-01-30T10:53:29;3.17;;;0.70;;
21258;SDS011;10787;53.364;-1.480;2024-01-30T10:56:15;2.20;;;0.70;;
21258;SDS011;10787;53.364;-1.480;2024-01-30T10:59:01;2.93;;;1.10;;
21258;SDS011;10787;53.364;-1.480;2024-01-30T11:01:45;3.07;;;0.80;;
21258;SDS011;10787;53.364;-1.480;2024-01-30T11:04:40;2.00;;;1.00;;
21258;SDS011;10787;53.364;-1.480;2024-01-30T11:07:26;2.13;;;0.80;;
21258;SDS011;10787;53.364;-1.480;2024-01-30T11:10:11;1.67;;;0.90;;
21258;SDS011;10787;53.364;-1.480;2024-01-30T11:12:58;3.33;;;0.70;;
21258;SDS011;10787;53.364;-1.480;2024-01-30T11:15:42;1.17;;;0.60;;
21258;SDS011;10787;53.364;-1.480;2024-01-30T11:18:28;3.10;;;0.80;;
21258;SDS011;10787;53.364;-1.480;2024-01-30T11:21:13;5.17;;;0.70;;
21258;SDS011;10787;53.364;-1.480;2024-01-30T11:23:58;6.73;;;0.80;;
21258;SDS011;10787;53.364;-1.480;2024-01-30T11:26:42;1.23;;;0.80;;
21258;SDS011;10787;53.364;-1.480;2024-01-30T11:29:27;3.50;;;0.90;;
21258;SDS011;10787;53.364;-1.480;2024-01-30T11:32:16;1.43;;;1.20;;
21258;SDS011;10787;53.364;-1.480;2024-01-30T11:35:07;6.63;;;3.33;;
21258;SDS011;10787;53.364;-1.480;2024-01-30T11:37:54;5.17;;;3.40;;
21258;SDS011;10787;53.364;-1.480;2024-01-30T11:40:41;13.97;;;7.80;;
21258;SDS011;10787;53.364;-1.480;2024-01-30T11:43:27;44.47;;;26.33;;
21258;SDS011;10787;53.364;-1.480;2024-01-30T11:46:11;20.97;;;13.30;;
21258;SDS011;10787;53.364;-1.480;2024-01-30T11:48:55;21.93;;;12.23;;
21258;SDS011;10787;53.364;-1.480;2024-01-30T11:51:39;2.13;;;1.70;;
21258;SDS011;10787;53.364;-1.480;2024-01-30T11:54:24;5.07;;;3.40;;
21258;SDS011;10787;53.364;-1.480;2024-01-30T11:57:08;14.90;;;5.63;;
21258;SDS011;10787;53.364;-1.480;2024-01-30T11:59:52;3.17;;;1.80;;
21258;SDS011;10787;53.364;-1.480;2024-01-30T12:02:37;1.10;;;0.90;;
21258;SDS011;10787;53.364;-1.480;2024-01-30T12:05:21;0.97;;;0.70;;
21258;SDS011;10787;53.364;-1.480;2024-01-30T12:08:06;3.37;;;1.80;;
21258;SDS011;10787;53.364;-1.480;2024-01-30T12:10:57;1.37;;;1.27;;
21258;SDS011;10787;53.364;-1.480;2024-01-30T12:13:49;13.40;;;10.57;;
21258;SDS011;10787;53.364;-1.480;2024-01-30T12:16:35;2.87;;;2.03;;
21258;SDS011;10787;53.364;-1.480;2024-01-30T12:19:25;8.93;;;7.17;;
21258;SDS011;10787;53.364;-1.480;2024-01-30T12:22:10;3.30;;;2.55;;
21258;SDS011;10787;53.364;-1.480;2024-01-30T12:24:54;2.10;;;0.90;;
21258;SDS011;10787;53.364;-1.480;2024-01-30T12:27:39;3.50;;;1.90;;
21258;SDS011;10787;53.364;-1.480;2024-01-30T12:30:27;2.57;;;1.60;;
21258;SDS011;10787;53.364;-1.480;2024-01-30T12:33:18;4.10;;;2.90;;
21258;SDS011;10787;53.364;-1.480;2024-01-30T12:36:02;1.13;;;0.90;;
21258;SDS011;10787;53.364;-1.480;2024-01-30T12:38:47;0.90;;;0.60;;
21258;SDS011;10787;53.364;-1.480;2024-01-30T12:41:32;23.23;;;19.63;;
21258;SDS011;10787;53.364;-1.480;2024-01-30T12:44:16;28.83;;;20.33;;
21258;SDS011;10787;53.364;-1.480;2024-01-30T12:47:04;7.00;;;5.27;;
21258;SDS011;10787;53.364;-1.480;2024-01-30T12:49:49;4.70;;;3.40;;
21258;SDS011;10787;53.364;-1.480;2024-01-30T12:52:37;5.43;;;2.80;;
21258;SDS011;10787;53.364;-1.480;2024-01-30T12:55:22;4.83;;;3.07;;
21258;SDS011;10787;53.364;-1.480;2024-01-30T12:58:08;2.10;;;1.40;;
21258;SDS011;10787;53.364;-1.480;2024-01-30T13:00:52;5.37;;;2.43;;
21258;SDS011;10787;53.364;-1.480;2024-01-30T13:03:37;1.27;;;1.00;;
21258;SDS011;10787;53.364;-1.480;2024-01-30T13:06:22;5.93;;;1.20;;
21258;SDS011;10787;53.364;-1.480;2024-01-30T13:09:06;2.97;;;1.00;;
21258;SDS011;10787;53.364;-1.480;2024-01-30T13:11:50;5.97;;;1.25;;
21258;SDS011;10787;53.364;-1.480;2024-01-30T13:14:34;6.85;;;3.95;;
21258;SDS011;10787;53.364;-1.480;2024-01-30T13:17:19;1.05;;;0.93;;
21258;SDS011;10787;53.364;-1.480;2024-01-30T13:20:03;1.73;;;1.35;;
21258;SDS011;10787;53.364;-1.480;2024-01-30T13:22:48;3.50;;;3.00;;
21258;SDS011;10787;53.364;-1.480;2024-01-30T13:25:33;3.90;;;2.35;;
21258;SDS011;10787;53.364;-1.480;2024-01-30T13:28:17;5.15;;;2.40;;
21258;SDS011;10787;53.364;-1.480;2024-01-30T13:31:01;2.13;;;1.63;;
21258;SDS011;10787;53.364;-1.480;2024-01-30T13:33:46;1.33;;;0.90;;
21258;SDS011;10787;53.364;-1.480;2024-01-30T13:36:30;1.88;;;1.02;;
21258;SDS011;10787;53.364;-1.480;2024-01-30T13:39:14;1.30;;;0.90;;
21258;SDS011;10787;53.364;-1.480;2024-01-30T13:41:58;1.88;;;0.70;;
21258;SDS011;10787;53.364;-1.480;2024-01-30T13:44:42;1.45;;;0.70;;
21258;SDS011;10787;53.364;-1.480;2024-01-30T13:47:27;0.90;;;0.47;;
21258;SDS011;10787;53.364;-1.480;2024-01-30T13:50:12;0.43;;;0.40;;
21258;SDS011;10787;53.364;-1.480;2024-01-30T13:52:59;0.52;;;0.40;;
21258;SDS011;10787;53.364;-1.480;2024-01-30T13:55:43;1.98;;;0.60;;
21258;SDS011;10787;53.364;-1.480;2024-01-30T13:58:28;0.63;;;0.50;;
21258;SDS011;10787;53.364;-1.480;2024-01-30T14:01:12;0.80;;;0.70;;
21258;SDS011;10787;53.364;-1.480;2024-01-30T14:03:56;2.15;;;0.60;;
21258;SDS011;10787;53.364;-1.480;2024-01-30T14:06:40;0.85;;;0.60;;
21258;SDS011;10787;53.364;-1.480;2024-01-30T14:09:25;1.23;;;0.77;;
21258;SDS011;10787;53.364;-1.480;2024-01-30T14:12:09;0.60;;;0.60;;
21258;SDS011;10787;53.364;-1.480;2024-01-30T14:14:53;0.65;;;0.50;;
21258;SDS011;10787;53.364;-1.480;2024-01-30T14:17:37;0.70;;;0.60;;
21258;SDS011;10787;53.364;-1.480;2024-01-30T14:20:22;2.70;;;0.63;;
21258;SDS011;10787;53.364;-1.480;2024-01-30T14:23:06;1.42;;;0.70;;
21258;SDS011;10787;53.364;-1.480;2024-01-30T14:25:51;1.00;;;0.57;;
21258;SDS011;10787;53.364;-1.480;2024-01-30T14:28:36;2.50;;;0.90;;
21258;SDS011;10787;53.364;-1.480;2024-01-30T14:31:20;1.33;;;0.70;;
21258;SDS011;10787;53.364;-1.480;2024-01-30T14:34:05;25.17;;;2.28;;
21258;SDS011;10787;53.364;-1.480;2024-01-30T14:36:49;2.17;;;1.08;;
21258;SDS011;10787;53.364;-1.480;2024-01-30T14:39:34;2.17;;;1.10;;
21258;SDS011;10787;53.364;-1.480;2024-01-30T14:42:20;1.38;;;0.70;;
21258;SDS011;10787;53.364;-1.480;2024-01-30T14:45:05;3.47;;;1.00;;
21258;SDS011;10787;53.364;-1.480;2024-01-30T14:47:50;1.85;;;0.80;;
21258;SDS011;10787;53.364;-1.480;2024-01-30T14:50:36;1.50;;;0.70;;
21258;SDS011;10787;53.364;-1.480;2024-01-30T14:53:20;4.15;;;0.90;;
21258;SDS011;10787;53.364;-1.480;2024-01-30T14:56:05;3.00;;;0.90;;
21258;SDS011;10787;53.364;-1.480;2024-01-30T14:58:50;2.00;;;0.90;;
21258;SDS011;10787;53.364;-1.480;2024-01-30T15:01:35;2.05;;;0.93;;
21258;SDS011;10787;53.364;-1.480;2024-01-30T15:04:19;2.78;;;0.80;;
21258;SDS011;10787;53.364;-1.480;2024-01-30T15:07:03;2.65;;;1.30;;
21258;SDS011;10787;53.364;-1.480;2024-01-30T15:09:48;2.90;;;1.30;;
21258;SDS011;10787;53.364;-1.480;2024-01-30T15:12:32;3.47;;;1.38;;
21258;SDS011;10787;53.364;-1.480;2024-01-30T15:15:16;2.72;;;1.20;;
21258;SDS011;10787;53.364;-1.480;2024-01-30T15:18:01;1.95;;;1.00;;
21258;SDS011;10787;53.364;-1.480;2024-01-30T15:20:46;2.00;;;0.88;;
21258;SDS011;10787;53.364;-1.480;2024-01-30T15:23:30;2.75;;;0.80;;
21258;SDS011;10787;53.364;-1.480;2024-01-30T15:26:15;3.35;;;1.00;;
21258;SDS011;10787;53.364;-1.480;2024-01-30T15:28:59;2.88;;;1.05;;
21258;SDS011;10787;53.364;-1.480;2024-01-30T15:31:43;2.03;;;1.00;;
21258;SDS011;10787;53.364;-1.480;2024-01-30T15:34:27;2.53;;;0.90;;
21258;SDS011;10787;53.364;-1.480;2024-01-30T15:37:11;3.10;;;1.17;;
21258;SDS011;10787;53.364;-1.480;2024-01-30T15:39:55;2.03;;;1.30;;
21258;SDS011;10787;53.364;-1.480;2024-01-30T15:42:40;3.53;;;1.30;;
21258;SDS011;10787;53.364;-1.480;2024-01-30T15:45:24;3.70;;;1.30;;
21258;SDS011;10787;53.364;-1.480;2024-01-30T15:48:08;2.38;;;1.17;;
21258;SDS011;10787;53.364;-1.480;2024-01-30T15:50:53;3.55;;;1.45;;
21258;SDS011;10787;53.364;-1.480;2024-01-30T15:53:38;2.17;;;0.80;;
21258;SDS011;10787;53.364;-1.480;2024-01-30T15:56:22;4.40;;;1.77;;
21258;SDS011;10787;53.364;-1.480;2024-01-30T15:59:07;4.55;;;2.20;;
21258;SDS011;10787;53.364;-1.480;2024-01-30T16:01:57;4.43;;;1.60;;
21258;SDS011;10787;53.364;-1.480;2024-01-30T16:04:42;5.33;;;2.63;;
21258;SDS011;10787;53.364;-1.480;2024-01-30T16:07:26;6.13;;;1.40;;
21258;SDS011;10787;53.364;-1.480;2024-01-30T16:10:11;3.67;;;1.30;;
21258;SDS011;10787;53.364;-1.480;2024-01-30T16:12:59;6.00;;;1.60;;